Time;durP1;ratioP1;P1;durP2;ratioP2;P2;SDS_P1;SDS_P2;PMS_P1;PMS_P2;Temp;Humidity;BMP_temperature;BMP_pressure;BME280_temperature;BME280_humidity;BME280_pressure;Samples;Min_cycle;Max_cycle;Signal;HPM_P1;HPM_P2
2022/11/06 00:00:35;;;;;;;20.90;17.90;;;;;;;;;;5056101;28;20996;-75
2022/11/06 00:03:03;;;;;;;20.10;17.90;;;;;;;;;;5051715;28;20468;-75
2022/11/06 00:08:15;;;;;;;21.07;18.77;;;;;;;;;;5051644;28;20478;-77
2022/11/06 00:10:43;;;;;;;19.90;17.80;;;;;;;;;;5051997;28;20445;-75
2022/11/06 00:13:10;;;;;;;19.90;17.20;;;;;;;;;;5051286;28;20484;-76
2022/11/06 00:15:37;;;;;;;19.60;17.60;;;;;;;;;;5051749;28;20588;-77
2022/11/06 00:18:04;;;;;;;19.73;17.43;;;;;;;;;;5051513;28;20445;-75
2022/11/06 00:20:32;;;;;;;24.93;19.33;;;;;;;;;;5051159;28;20446;-75
2022/11/06 00:22:59;;;;;;;19.47;17.40;;;;;;;;;;5051170;28;20461;-74
2022/11/06 00:25:26;;;;;;;19.03;17.03;;;;;;;;;;5050880;28;20453;-75
2022/11/06 00:27:54;;;;;;;20.13;17.50;;;;;;;;;;5050931;28;20791;-75
2022/11/06 00:30:21;;;;;;;20.87;18.53;;;;;;;;;;5050751;28;20817;-75
2022/11/06 00:32:48;;;;;;;22.53;18.30;;;;;;;;;;5051114;28;20473;-76
2022/11/06 00:35:16;;;;;;;23.50;18.40;;;;;;;;;;5051133;28;20441;-75
2022/11/06 00:37:43;;;;;;;21.43;17.60;;;;;;;;;;5051488;28;20445;-75
2022/11/06 00:40:10;;;;;;;20.87;18.57;;;;;;;;;;5051520;28;20448;-75
2022/11/06 00:42:37;;;;;;;20.63;18.63;;;;;;;;;;5050868;28;20461;-74
2022/11/06 00:45:07;;;;;;;18.20;16.30;;;;;;;;;;5051147;28;20450;-75
2022/11/06 00:47:34;;;;;;;20.37;17.27;;;;;;;;;;5051330;28;20445;-75
2022/11/06 00:50:01;;;;;;;19.03;17.13;;;;;;;;;;5051279;28;20441;-75
2022/11/06 00:52:29;;;;;;;18.63;16.73;;;;;;;;;;5051449;28;20464;-77
2022/11/06 00:54:56;;;;;;;19.73;17.73;;;;;;;;;;5051067;28;20945;-76
2022/11/06 00:57:23;;;;;;;19.30;17.30;;;;;;;;;;5050437;28;20484;-75
2022/11/06 00:59:50;;;;;;;20.57;18.03;;;;;;;;;;5050725;28;20925;-77
2022/11/06 01:02:19;;;;;;;20.47;17.33;;;;;;;;;;5052272;28;20468;-76
2022/11/06 01:04:47;;;;;;;21.20;17.43;;;;;;;;;;5051315;28;20520;-76
2022/11/06 01:07:14;;;;;;;20.43;18.23;;;;;;;;;;5050683;28;20486;-77
2022/11/06 01:09:41;;;;;;;19.63;17.53;;;;;;;;;;5050598;28;20452;-76
2022/11/06 01:12:08;;;;;;;18.17;16.23;;;;;;;;;;5050327;28;20472;-76
2022/11/06 01:14:35;;;;;;;19.60;17.50;;;;;;;;;;5050568;28;20437;-76
2022/11/06 01:17:02;;;;;;;19.50;17.50;;;;;;;;;;5050245;28;20489;-76
2022/11/06 01:19:30;;;;;;;19.80;17.77;;;;;;;;;;5050277;28;20837;-76
2022/11/06 01:21:57;;;;;;;22.30;17.20;;;;;;;;;;5050540;28;20466;-76
2022/11/06 01:24:25;;;;;;;20.40;18.17;;;;;;;;;;5050207;28;20469;-76
2022/11/06 01:26:53;;;;;;;19.87;17.73;;;;;;;;;;5050504;28;20449;-76
2022/11/06 01:29:20;;;;;;;20.90;17.83;;;;;;;;;;5069559;28;20455;-76
2022/11/06 01:31:49;;;;;;;21.63;18.07;;;;;;;;;;5068206;28;20436;-76
2022/11/06 01:34:16;;;;;;;20.77;18.30;;;;;;;;;;5051253;28;20464;-76
2022/11/06 01:36:45;;;;;;;22.23;19.83;;;;;;;;;;5070030;28;20777;-76
2022/11/06 01:39:13;;;;;;;20.80;18.63;;;;;;;;;;5070470;28;20480;-76
2022/11/06 01:41:41;;;;;;;22.70;19.27;;;;;;;;;;5070328;28;20440;-76
2022/11/06 01:44:23;;;;;;;18.97;17.00;;;;;;;;;;5070125;28;20452;-76
2022/11/06 01:46:50;;;;;;;21.03;18.90;;;;;;;;;;5069796;28;20441;-77
2022/11/06 01:49:17;;;;;;;20.57;18.37;;;;;;;;;;5062403;28;20452;-77
2022/11/06 01:51:48;;;;;;;20.23;18.10;;;;;;;;;;5070061;28;20451;-76
2022/11/06 01:54:16;;;;;;;20.10;18.00;;;;;;;;;;5069814;28;20417;-76
2022/11/06 01:56:45;;;;;;;20.10;17.67;;;;;;;;;;5069858;28;21007;-77
2022/11/06 01:59:14;;;;;;;19.67;17.33;;;;;;;;;;5069715;28;20448;-77
2022/11/06 02:01:41;;;;;;;18.60;16.67;;;;;;;;;;5070388;28;20785;-76
2022/11/06 02:04:09;;;;;;;21.07;17.10;;;;;;;;;;5069849;28;20444;-77
2022/11/06 02:06:37;;;;;;;19.73;17.80;;;;;;;;;;5072974;28;20447;-77
2022/11/06 02:09:10;;;;;;;19.50;17.40;;;;;;;;;;5073137;28;20440;-77
2022/11/06 02:11:37;;;;;;;18.47;16.50;;;;;;;;;;5073265;28;20445;-76
2022/11/06 02:14:09;;;;;;;18.77;16.77;;;;;;;;;;5073182;28;20440;-76
2022/11/06 02:16:40;;;;;;;21.67;16.50;;;;;;;;;;5073035;28;20468;-77
2022/11/06 02:19:16;;;;;;;18.67;16.67;;;;;;;;;;5073018;28;20447;-76
2022/11/06 02:21:58;;;;;;;19.13;17.17;;;;;;;;;;5073251;28;20432;-76
2022/11/06 02:24:36;;;;;;;19.23;17.10;;;;;;;;;;5072708;28;20529;-76
2022/11/06 02:27:10;;;;;;;18.50;16.70;;;;;;;;;;5073503;28;20460;-75
2022/11/06 02:29:39;;;;;;;20.30;17.43;;;;;;;;;;5073697;28;20480;-75
2022/11/06 02:32:08;;;;;;;17.80;15.80;;;;;;;;;;5063154;28;20497;-77
2022/11/06 02:34:36;;;;;;;18.70;16.90;;;;;;;;;;5072260;28;21024;-76
2022/11/06 02:37:05;;;;;;;18.20;16.30;;;;;;;;;;5073110;28;20587;-76
2022/11/06 02:39:34;;;;;;;18.17;16.10;;;;;;;;;;5072923;28;20531;-77
2022/11/06 02:42:04;;;;;;;20.67;18.07;;;;;;;;;;5076636;28;20548;-76
2022/11/06 02:44:33;;;;;;;18.90;16.80;;;;;;;;;;5080136;28;20527;-74
2022/11/06 02:47:02;;;;;;;18.47;16.50;;;;;;;;;;5081345;28;20519;-75
2022/11/06 02:49:32;;;;;;;19.03;17.13;;;;;;;;;;5084089;28;20472;-76
2022/11/06 02:52:01;;;;;;;20.10;18.07;;;;;;;;;;5086477;28;20475;-76
2022/11/06 02:54:30;;;;;;;19.30;17.30;;;;;;;;;;5079233;28;20814;-77
2022/11/06 02:56:59;;;;;;;18.37;16.60;;;;;;;;;;5075348;28;20502;-76
2022/11/06 02:59:27;;;;;;;20.90;18.20;;;;;;;;;;5078025;28;20455;-75
2022/11/06 03:01:57;;;;;;;21.13;18.47;;;;;;;;;;5074551;28;20444;-75
2022/11/06 03:04:27;;;;;;;21.70;17.30;;;;;;;;;;5072539;28;20433;-76
2022/11/06 03:06:57;;;;;;;18.63;16.40;;;;;;;;;;5072780;28;20456;-76
2022/11/06 03:09:27;;;;;;;18.20;16.00;;;;;;;;;;5072522;28;20972;-77
2022/11/06 03:11:58;;;;;;;18.10;16.30;;;;;;;;;;5072187;28;20458;-76
2022/11/06 03:14:28;;;;;;;19.63;17.00;;;;;;;;;;5072295;28;20437;-76
2022/11/06 03:16:58;;;;;;;17.33;15.67;;;;;;;;;;5072070;28;20480;-77
2022/11/06 03:19:28;;;;;;;19.87;17.87;;;;;;;;;;5071342;28;20508;-77
2022/11/06 03:22:00;;;;;;;19.00;16.87;;;;;;;;;;5064412;28;20456;-77
2022/11/06 03:24:30;;;;;;;18.63;15.93;;;;;;;;;;5070074;28;20452;-78
2022/11/06 03:26:58;;;;;;;18.53;16.23;;;;;;;;;;5072620;28;20437;-77
2022/11/06 03:29:28;;;;;;;18.07;16.20;;;;;;;;;;5072706;28;20444;-77
2022/11/06 03:31:59;;;;;;;16.57;14.97;;;;;;;;;;5063513;28;20452;-77
2022/11/06 03:34:29;;;;;;;19.17;16.33;;;;;;;;;;5070821;28;20444;-77
2022/11/06 03:37:00;;;;;;;19.53;17.50;;;;;;;;;;5071395;28;20473;-76
2022/11/06 03:39:29;;;;;;;17.23;15.43;;;;;;;;;;5072197;28;20445;-76
2022/11/06 03:41:59;;;;;;;17.43;15.60;;;;;;;;;;5071661;28;20441;-75
2022/11/06 03:44:28;;;;;;;18.10;15.40;;;;;;;;;;5071252;28;20472;-75
2022/11/06 03:46:59;;;;;;;18.37;15.00;;;;;;;;;;5070804;28;20456;-76
2022/11/06 03:49:29;;;;;;;16.50;14.80;;;;;;;;;;5071321;28;20445;-76
2022/11/06 03:51:58;;;;;;;15.30;13.80;;;;;;;;;;5071063;28;20455;-76
2022/11/06 03:54:26;;;;;;;18.07;16.17;;;;;;;;;;5070626;28;20548;-75
2022/11/06 03:56:56;;;;;;;16.90;14.90;;;;;;;;;;5071265;28;20484;-77
2022/11/06 03:59:24;;;;;;;18.53;14.90;;;;;;;;;;5071163;28;20456;-76
2022/11/06 04:01:54;;;;;;;15.53;14.03;;;;;;;;;;5071002;28;20951;-76
2022/11/06 04:04:25;;;;;;;15.70;14.07;;;;;;;;;;5071531;28;20498;-77
2022/11/06 04:06:54;;;;;;;15.70;14.10;;;;;;;;;;5071385;28;20873;-77
2022/11/06 04:14:55;;;;;;;15.47;13.87;;;;;;;;;;5072273;28;20426;-76
2022/11/06 04:17:24;;;;;;;16.13;14.53;;;;;;;;;;5072111;28;20484;-76
2022/11/06 04:19:54;;;;;;;16.87;15.10;;;;;;;;;;5070981;28;20455;-76
2022/11/06 04:22:31;;;;;;;14.97;13.53;;;;;;;;;;5069983;28;20823;-76
2022/11/06 04:27:54;;;;;;;15.10;13.70;;;;;;;;;;5070170;28;20404;-77
2022/11/06 04:30:21;;;;;;;15.80;13.67;;;;;;;;;;5070706;28;20468;-76
2022/11/06 04:32:54;;;;;;;16.90;14.67;;;;;;;;;;5070179;28;20480;-75
2022/11/06 04:35:26;;;;;;;15.17;13.30;;;;;;;;;;5070363;28;20906;-76
2022/11/06 04:37:55;;;;;;;15.87;14.33;;;;;;;;;;5070699;28;20869;-77
2022/11/06 04:40:24;;;;;;;14.20;12.90;;;;;;;;;;5070527;28;20452;-77
2022/11/06 04:42:55;;;;;;;16.50;14.10;;;;;;;;;;5068342;28;20465;-77
2022/11/06 04:45:24;;;;;;;14.70;13.20;;;;;;;;;;5068051;28;20444;-76
2022/11/06 04:47:53;;;;;;;13.93;12.53;;;;;;;;;;5070975;28;20432;-77
2022/11/06 04:50:21;;;;;;;14.63;13.13;;;;;;;;;;5070651;28;20527;-75
2022/11/06 04:52:50;;;;;;;14.47;13.17;;;;;;;;;;5069956;28;20837;-75
2022/11/06 04:55:17;;;;;;;15.30;13.80;;;;;;;;;;5070484;28;20471;-77
2022/11/06 04:57:44;;;;;;;14.50;13.10;;;;;;;;;;5070043;28;20476;-77
2022/11/06 05:00:13;;;;;;;16.13;13.53;;;;;;;;;;5069873;28;20449;-76
2022/11/06 05:02:40;;;;;;;15.30;13.70;;;;;;;;;;5069996;28;20474;-76
2022/11/06 05:05:07;;;;;;;15.20;13.63;;;;;;;;;;5061888;28;20819;-76
2022/11/06 05:07:34;;;;;;;14.87;13.37;;;;;;;;;;5070330;28;20440;-77
2022/11/06 05:10:03;;;;;;;14.83;13.23;;;;;;;;;;5070261;28;20447;-77
2022/11/06 05:12:30;;;;;;;13.07;11.77;;;;;;;;;;5070388;28;20463;-76
2022/11/06 05:14:57;;;;;;;14.73;13.40;;;;;;;;;;5070602;28;20448;-77
2022/11/06 05:17:24;;;;;;;14.63;13.20;;;;;;;;;;5070463;28;20480;-77
2022/11/06 05:19:51;;;;;;;14.10;12.70;;;;;;;;;;5070317;28;20445;-77
2022/11/06 05:25:04;;;;;;;14.80;13.30;;;;;;;;;;5070243;28;20407;-76
2022/11/06 05:27:31;;;;;;;14.33;12.93;;;;;;;;;;5070688;28;20482;-77
2022/11/06 05:29:59;;;;;;;13.17;11.93;;;;;;;;;;5069902;28;20454;-77
2022/11/06 05:32:26;;;;;;;13.77;12.43;;;;;;;;;;5069842;28;20461;-77
2022/11/06 05:34:53;;;;;;;13.70;12.30;;;;;;;;;;5069655;28;20924;-77
2022/11/06 05:37:20;;;;;;;13.70;12.50;;;;;;;;;;5070073;28;20472;-76
2022/11/06 05:39:47;;;;;;;15.07;13.57;;;;;;;;;;5070366;28;20448;-76
2022/11/06 05:42:15;;;;;;;13.87;12.47;;;;;;;;;;5073955;28;21010;-75
2022/11/06 05:44:42;;;;;;;14.70;13.27;;;;;;;;;;5074130;28;20440;-77
2022/11/06 05:47:09;;;;;;;14.60;13.20;;;;;;;;;;5074462;28;20444;-76
2022/11/06 05:49:36;;;;;;;13.87;12.47;;;;;;;;;;5074106;28;20817;-76
2022/11/06 05:52:03;;;;;;;14.17;12.80;;;;;;;;;;5074194;28;20470;-77
2022/11/06 05:54:30;;;;;;;15.20;12.27;;;;;;;;;;5073490;28;20908;-76
2022/11/06 05:56:57;;;;;;;14.77;13.30;;;;;;;;;;5073935;28;20443;-77
2022/11/06 05:59:26;;;;;;;14.23;12.87;;;;;;;;;;5074376;28;20436;-77
2022/11/06 06:01:53;;;;;;;13.37;12.13;;;;;;;;;;5073794;28;20948;-76
2022/11/06 06:04:20;;;;;;;13.13;11.83;;;;;;;;;;5073413;28;20448;-77
2022/11/06 06:06:47;;;;;;;13.90;12.57;;;;;;;;;;5073879;28;20440;-76
2022/11/06 06:09:14;;;;;;;14.63;13.13;;;;;;;;;;5073654;28;20447;-76
2022/11/06 06:11:41;;;;;;;12.73;11.60;;;;;;;;;;5073634;28;20457;-76
2022/11/06 06:14:08;;;;;;;14.90;13.43;;;;;;;;;;5072985;28;20942;-77
2022/11/06 06:16:37;;;;;;;14.20;12.90;;;;;;;;;;5073902;28;20454;-77
2022/11/06 06:19:04;;;;;;;13.53;12.30;;;;;;;;;;5073522;28;20479;-76
2022/11/06 06:21:31;;;;;;;13.60;12.30;;;;;;;;;;5073379;28;20459;-77
2022/11/06 06:23:58;;;;;;;13.40;12.10;;;;;;;;;;5072717;28;20475;-76
2022/11/06 06:26:25;;;;;;;12.33;11.03;;;;;;;;;;5073455;28;20447;-76
2022/11/06 06:28:52;;;;;;;13.17;11.87;;;;;;;;;;5077204;28;20451;-75
2022/11/06 06:31:19;;;;;;;12.87;11.60;;;;;;;;;;5081473;28;20451;-75
2022/11/06 06:33:48;;;;;;;14.37;12.93;;;;;;;;;;5079648;28;20480;-75
2022/11/06 06:36:15;;;;;;;11.77;10.60;;;;;;;;;;5080253;28;20451;-76
2022/11/06 06:38:42;;;;;;;14.03;12.10;;;;;;;;;;5079299;28;20482;-78
2022/11/06 06:41:09;;;;;;;12.93;11.80;;;;;;;;;;5075243;28;20450;-77
2022/11/06 06:43:37;;;;;;;14.30;12.93;;;;;;;;;;5078883;28;20472;-76
2022/11/06 06:46:05;;;;;;;13.60;12.30;;;;;;;;;;5074751;28;20454;-78
2022/11/06 06:48:32;;;;;;;12.80;11.50;;;;;;;;;;5070152;28;20448;-76
2022/11/06 06:51:01;;;;;;;11.90;10.70;;;;;;;;;;5063605;28;20447;-77
2022/11/06 06:53:29;;;;;;;13.50;12.10;;;;;;;;;;5071290;28;21046;-77
2022/11/06 06:55:58;;;;;;;13.90;12.50;;;;;;;;;;5071072;28;20782;-76
2022/11/06 06:58:26;;;;;;;12.30;11.07;;;;;;;;;;5071609;28;20511;-76
2022/11/06 07:00:53;;;;;;;13.30;12.07;;;;;;;;;;5072096;28;20444;-76
2022/11/06 07:03:21;;;;;;;12.00;10.90;;;;;;;;;;5071622;28;20472;-76
2022/11/06 07:05:48;;;;;;;13.03;11.73;;;;;;;;;;5071907;28;20444;-78
2022/11/06 07:08:16;;;;;;;13.77;12.37;;;;;;;;;;5072172;28;20448;-76
2022/11/06 07:10:43;;;;;;;12.77;11.50;;;;;;;;;;5071976;28;20444;-77
2022/11/06 07:13:10;;;;;;;12.17;10.97;;;;;;;;;;5071394;28;20463;-76
2022/11/06 07:15:37;;;;;;;15.90;13.40;;;;;;;;;;5072091;28;20447;-76
2022/11/06 07:18:05;;;;;;;16.60;14.80;;;;;;;;;;5072493;28;20471;-76
2022/11/06 07:20:33;;;;;;;17.10;13.57;;;;;;;;;;5071784;28;20444;-77
2022/11/06 07:23:00;;;;;;;15.67;14.07;;;;;;;;;;5071060;28;20511;-77
2022/11/06 07:25:28;;;;;;;16.80;15.07;;;;;;;;;;5071576;28;20459;-77
2022/11/06 07:27:55;;;;;;;14.63;13.23;;;;;;;;;;5071866;28;20459;-76
2022/11/06 07:30:22;;;;;;;15.93;14.23;;;;;;;;;;5073280;28;20448;-77
2022/11/06 07:32:49;;;;;;;16.47;14.20;;;;;;;;;;5035747;28;1036064;-76
2022/11/06 07:35:16;;;;;;;15.07;13.50;;;;;;;;;;5075264;28;20194;-76
2022/11/06 07:37:43;;;;;;;15.13;13.63;;;;;;;;;;5076494;28;20844;-76
2022/11/06 07:40:11;;;;;;;16.00;12.87;;;;;;;;;;5078819;28;20448;-77
2022/11/06 07:42:39;;;;;;;15.33;13.70;;;;;;;;;;5073948;28;20472;-77
2022/11/06 07:45:07;;;;;;;13.00;11.70;;;;;;;;;;5088883;28;20455;-77
2022/11/06 07:47:34;;;;;;;14.63;13.10;;;;;;;;;;5094273;28;20427;-76
2022/11/06 07:50:01;;;;;;;15.53;13.60;;;;;;;;;;5096708;28;20447;-77
2022/11/06 07:52:28;;;;;;;14.50;13.17;;;;;;;;;;5098534;28;20449;-75
2022/11/06 07:54:55;;;;;;;13.83;12.43;;;;;;;;;;5095074;28;20492;-77
2022/11/06 07:57:22;;;;;;;14.17;12.50;;;;;;;;;;5094958;28;20444;-76
2022/11/06 07:59:51;;;;;;;12.50;11.23;;;;;;;;;;5097155;28;20432;-75
2022/11/06 08:02:18;;;;;;;12.60;11.40;;;;;;;;;;5097401;28;20536;-76
2022/11/06 08:04:45;;;;;;;12.30;11.03;;;;;;;;;;5097325;28;20439;-75
2022/11/06 08:07:12;;;;;;;11.47;10.37;;;;;;;;;;5098457;28;20443;-75
2022/11/06 08:09:39;;;;;;;11.70;10.60;;;;;;;;;;5098471;28;20445;-75
2022/11/06 08:12:06;;;;;;;11.97;11.07;;;;;;;;;;5097354;28;20444;-76
2022/11/06 08:14:33;;;;;;;11.17;10.17;;;;;;;;;;5096103;28;20429;-77
2022/11/06 08:17:02;;;;;;;12.20;11.07;;;;;;;;;;5097139;28;20510;-77
2022/11/06 08:19:29;;;;;;;11.00;10.00;;;;;;;;;;5097808;28;20495;-76
2022/11/06 08:21:56;;;;;;;11.17;9.80;;;;;;;;;;5089770;28;20433;-76
2022/11/06 08:24:24;;;;;;;10.20;9.40;;;;;;;;;;5097700;28;20428;-76
2022/11/06 08:26:51;;;;;;;11.03;9.83;;;;;;;;;;5098098;28;20421;-76
2022/11/06 08:29:18;;;;;;;9.27;8.47;;;;;;;;;;5098229;28;20494;-76
2022/11/06 08:31:45;;;;;;;12.70;9.97;;;;;;;;;;5091995;28;20464;-76
2022/11/06 08:34:13;;;;;;;9.60;8.70;;;;;;;;;;5077457;28;20434;-76
2022/11/06 08:36:41;;;;;;;9.80;8.90;;;;;;;;;;5078343;28;20447;-75
2022/11/06 08:39:08;;;;;;;10.33;9.23;;;;;;;;;;5078357;28;20451;-76
2022/11/06 08:41:35;;;;;;;10.40;9.50;;;;;;;;;;5078115;28;20425;-75
2022/11/06 08:44:02;;;;;;;9.20;8.40;;;;;;;;;;5077784;28;20436;-77
2022/11/06 08:46:29;;;;;;;9.37;8.57;;;;;;;;;;5077979;28;20459;-75
2022/11/06 08:48:56;;;;;;;9.60;8.80;;;;;;;;;;5078049;28;20435;-75
2022/11/06 08:51:25;;;;;;;9.00;8.30;;;;;;;;;;5077543;28;20430;-75
2022/11/06 08:53:52;;;;;;;8.27;7.57;;;;;;;;;;5077666;28;20444;-75
2022/11/06 08:56:19;;;;;;;8.07;7.40;;;;;;;;;;5077626;28;20452;-75
2022/11/06 08:58:46;;;;;;;8.80;8.00;;;;;;;;;;5075230;28;20453;-76
2022/11/06 09:01:13;;;;;;;8.40;7.70;;;;;;;;;;5072889;28;20453;-76
2022/11/06 09:03:40;;;;;;;9.20;8.47;;;;;;;;;;5077027;28;20445;-77
2022/11/06 09:06:07;;;;;;;8.97;8.17;;;;;;;;;;5077274;28;20445;-76
2022/11/06 09:08:36;;;;;;;9.40;8.60;;;;;;;;;;5077074;28;20487;-76
2022/11/06 09:11:07;;;;;;;9.63;8.63;;;;;;;;;;5076174;28;20439;-76
2022/11/06 09:13:34;;;;;;;9.03;8.33;;;;;;;;;;5074173;28;20461;-77
2022/11/06 09:16:01;;;;;;;12.33;11.13;;;;;;;;;;5070741;28;20468;-77
2022/11/06 09:18:28;;;;;;;13.10;11.93;;;;;;;;;;5069666;28;20480;-76
2022/11/06 09:20:55;;;;;;;8.00;7.30;;;;;;;;;;5075184;28;20441;-76
2022/11/06 09:23:22;;;;;;;8.37;7.67;;;;;;;;;;5070497;28;20492;-76
2022/11/06 09:25:51;;;;;;;8.00;7.30;;;;;;;;;;5051794;28;20451;-77
2022/11/06 09:28:18;;;;;;;8.10;7.40;;;;;;;;;;5051291;28;20441;-77
2022/11/06 09:30:45;;;;;;;7.73;7.10;;;;;;;;;;5050874;28;20449;-76
2022/11/06 09:33:13;;;;;;;8.53;7.83;;;;;;;;;;5050581;28;20801;-75
2022/11/06 09:35:40;;;;;;;7.57;6.80;;;;;;;;;;5051412;28;20544;-76
2022/11/06 09:38:08;;;;;;;7.37;6.77;;;;;;;;;;5050772;28;20477;-76
2022/11/06 09:40:36;;;;;;;8.23;7.57;;;;;;;;;;5050515;28;21066;-77
2022/11/06 09:43:20;;;;;;;8.10;7.30;;;;;;;;;;5050323;28;20468;-75
2022/11/06 09:45:49;;;;;;;8.77;7.97;;;;;;;;;;5050251;28;20436;-77
2022/11/06 09:48:20;;;;;;;9.60;8.80;;;;;;;;;;5050531;28;20453;-77
2022/11/06 09:50:50;;;;;;;8.83;8.03;;;;;;;;;;5050690;28;20430;-77
2022/11/06 09:53:19;;;;;;;8.90;8.20;;;;;;;;;;5050689;28;20476;-77
2022/11/06 09:55:47;;;;;;;9.40;8.60;;;;;;;;;;5050316;28;20461;-77
2022/11/06 09:58:16;;;;;;;8.80;8.00;;;;;;;;;;5052098;28;20846;-76
2022/11/06 10:00:45;;;;;;;11.30;7.87;;;;;;;;;;5058379;28;20446;-77
2022/11/06 10:03:15;;;;;;;9.80;9.00;;;;;;;;;;5051551;28;20548;-77
2022/11/06 10:05:43;;;;;;;9.30;8.50;;;;;;;;;;5050602;28;20452;-77
2022/11/06 10:08:14;;;;;;;8.97;8.20;;;;;;;;;;5049750;28;20449;-77
2022/11/06 10:10:43;;;;;;;9.23;8.47;;;;;;;;;;5050246;28;20430;-77
2022/11/06 10:13:21;;;;;;;9.70;8.30;;;;;;;;;;5049567;28;21164;-76
2022/11/06 10:15:52;;;;;;;8.47;7.77;;;;;;;;;;5050064;28;20452;-77
2022/11/06 10:18:24;;;;;;;12.63;11.67;;;;;;;;;;5049795;28;20545;-78
2022/11/06 10:20:53;;;;;;;9.50;8.80;;;;;;;;;;5049903;28;20491;-77
2022/11/06 10:23:23;;;;;;;9.90;9.00;;;;;;;;;;5049413;28;20480;-77
2022/11/06 10:25:58;;;;;;;10.40;8.13;;;;;;;;;;5050095;28;20513;-77
2022/11/06 10:28:30;;;;;;;8.77;8.07;;;;;;;;;;5053843;28;20429;-77
2022/11/06 10:31:04;;;;;;;9.27;8.57;;;;;;;;;;5053363;28;20782;-77
2022/11/06 10:33:38;;;;;;;8.80;8.00;;;;;;;;;;5052983;28;20473;-77
2022/11/06 10:36:07;;;;;;;8.50;7.80;;;;;;;;;;5053743;28;20798;-77
2022/11/06 10:38:35;;;;;;;8.90;8.10;;;;;;;;;;5053301;28;20481;-77
2022/11/06 10:41:03;;;;;;;9.40;8.70;;;;;;;;;;5053331;28;20537;-77
2022/11/06 10:43:32;;;;;;;9.17;8.27;;;;;;;;;;5052684;28;20484;-76
2022/11/06 10:46:03;;;;;;;9.27;8.50;;;;;;;;;;5062809;28;20456;-77
2022/11/06 10:48:32;;;;;;;9.63;8.73;;;;;;;;;;5072753;28;20437;-77
2022/11/06 10:51:05;;;;;;;9.50;8.70;;;;;;;;;;5072782;28;20453;-78
2022/11/06 10:53:38;;;;;;;11.67;10.57;;;;;;;;;;5072305;28;20465;-77
2022/11/06 10:56:12;;;;;;;11.50;10.40;;;;;;;;;;5068283;28;20449;-77
2022/11/06 10:58:39;;;;;;;8.83;8.03;;;;;;;;;;5071544;28;20828;-77
2022/11/06 11:01:12;;;;;;;9.50;8.60;;;;;;;;;;5072661;28;20459;-77
2022/11/06 11:03:41;;;;;;;10.13;9.13;;;;;;;;;;5066280;28;20837;-77
2022/11/06 11:06:08;;;;;;;9.27;8.43;;;;;;;;;;5072776;28;20459;-77
2022/11/06 11:08:37;;;;;;;8.80;8.00;;;;;;;;;;5072549;28;20441;-77
2022/11/06 11:11:05;;;;;;;8.30;7.57;;;;;;;;;;5072543;28;20560;-77
2022/11/06 11:13:33;;;;;;;9.07;8.17;;;;;;;;;;5072333;28;20452;-78
2022/11/06 11:16:00;;;;;;;9.17;8.27;;;;;;;;;;5072790;28;20445;-77
2022/11/06 11:18:31;;;;;;;9.70;8.40;;;;;;;;;;5073016;28;20447;-77
2022/11/06 11:21:14;;;;;;;13.20;11.83;;;;;;;;;;5074640;28;20447;-76
2022/11/06 11:23:42;;;;;;;8.93;8.03;;;;;;;;;;5073964;28;20539;-77
2022/11/06 11:26:20;;;;;;;8.50;7.77;;;;;;;;;;5072740;28;20471;-77
2022/11/06 11:28:51;;;;;;;9.53;8.63;;;;;;;;;;5072748;28;20436;-78
2022/11/06 11:31:18;;;;;;;7.97;7.27;;;;;;;;;;5072663;28;20463;-77
2022/11/06 11:33:51;;;;;;;7.07;6.57;;;;;;;;;;5072223;28;20949;-77
2022/11/06 11:36:18;;;;;;;8.63;7.17;;;;;;;;;;5073153;28;20421;-78
2022/11/06 11:38:45;;;;;;;6.60;6.00;;;;;;;;;;5071240;28;20488;-77
2022/11/06 11:41:14;;;;;;;6.77;6.27;;;;;;;;;;5072575;28;20445;-77
2022/11/06 11:43:41;;;;;;;5.07;4.77;;;;;;;;;;5072061;28;20836;-78
2022/11/06 11:46:33;;;;;;;6.70;5.53;;;;;;;;;;5071729;28;20448;-78
2022/11/06 11:49:16;;;;;;;5.73;5.33;;;;;;;;;;5070913;28;20483;-77
2022/11/06 11:51:48;;;;;;;5.57;5.03;;;;;;;;;;5071219;28;20421;-78
2022/11/06 11:54:18;;;;;;;5.70;5.20;;;;;;;;;;5071903;28;20453;-78
2022/11/06 11:56:46;;;;;;;5.90;5.40;;;;;;;;;;5071979;28;20421;-77
2022/11/06 11:59:17;;;;;;;5.87;5.27;;;;;;;;;;5071638;28;20503;-77
2022/11/06 12:01:56;;;;;;;5.60;5.10;;;;;;;;;;5073898;28;20425;-75
2022/11/06 12:04:29;;;;;;;5.53;5.13;;;;;;;;;;5081993;28;20461;-76
2022/11/06 12:06:59;;;;;;;7.27;6.73;;;;;;;;;;5096082;28;20459;-76
2022/11/06 12:09:52;;;;;;;6.33;5.20;;;;;;;;;;5098126;28;20427;-75
2022/11/06 12:12:21;;;;;;;5.80;5.40;;;;;;;;;;5094597;28;20520;-76
2022/11/06 12:14:48;;;;;;;5.70;5.20;;;;;;;;;;5097777;28;20443;-75
2022/11/06 12:17:18;;;;;;;5.07;4.67;;;;;;;;;;5091760;28;20436;-75
2022/11/06 12:19:48;;;;;;;5.90;5.40;;;;;;;;;;5077427;28;20476;-74
2022/11/06 12:22:18;;;;;;;5.97;5.47;;;;;;;;;;5077576;28;20442;-75
2022/11/06 12:24:49;;;;;;;6.17;5.60;;;;;;;;;;5077029;28;20428;-75
2022/11/06 12:27:18;;;;;;;5.80;5.40;;;;;;;;;;5078224;28;20410;-76
2022/11/06 12:29:46;;;;;;;6.07;5.57;;;;;;;;;;5078336;28;20426;-75
2022/11/06 12:32:19;;;;;;;5.93;5.53;;;;;;;;;;5077835;28;20456;-75
2022/11/06 12:34:50;;;;;;;6.33;5.73;;;;;;;;;;5077403;28;20414;-75
2022/11/06 12:37:36;;;;;;;5.77;5.37;;;;;;;;;;5077844;28;20474;-75
2022/11/06 12:40:07;;;;;;;5.77;5.37;;;;;;;;;;5087462;28;20483;-75
2022/11/06 12:42:35;;;;;;;5.37;4.97;;;;;;;;;;5097625;28;20551;-77
2022/11/06 12:45:02;;;;;;;4.90;4.57;;;;;;;;;;5097734;28;20440;-75
2022/11/06 12:47:38;;;;;;;5.00;4.60;;;;;;;;;;5088765;28;20540;-76
2022/11/06 12:50:10;;;;;;;5.30;4.90;;;;;;;;;;5080460;28;20432;-77
2022/11/06 12:52:49;;;;;;;5.10;4.80;;;;;;;;;;5079224;28;20465;-76
2022/11/06 12:55:20;;;;;;;5.63;5.23;;;;;;;;;;5074127;28;20425;-76
2022/11/06 12:57:59;;;;;;;5.83;5.37;;;;;;;;;;5073543;28;20441;-76
2022/11/06 13:00:27;;;;;;;6.20;5.70;;;;;;;;;;5077812;28;20778;-76
2022/11/06 13:03:04;;;;;;;4.97;4.67;;;;;;;;;;5079579;28;20464;-78
2022/11/06 13:05:33;;;;;;;5.13;4.73;;;;;;;;;;5080145;28;20450;-76
2022/11/06 13:08:16;;;;;;;6.23;5.73;;;;;;;;;;5081542;28;20452;-75
2022/11/06 13:10:52;;;;;;;5.97;5.47;;;;;;;;;;5081717;28;20416;-76
2022/11/06 13:13:26;;;;;;;5.63;5.17;;;;;;;;;;5080408;28;20858;-78
2022/11/06 13:15:57;;;;;;;5.13;4.73;;;;;;;;;;5076521;28;20437;-76
2022/11/06 13:18:25;;;;;;;5.07;4.67;;;;;;;;;;5076875;28;20457;-76
2022/11/06 13:20:56;;;;;;;5.30;4.90;;;;;;;;;;5076109;28;20499;-76
2022/11/06 13:23:28;;;;;;;5.03;4.63;;;;;;;;;;5071818;28;20472;-75
2022/11/06 13:26:01;;;;;;;5.30;4.80;;;;;;;;;;5075341;28;20482;-76
2022/11/06 13:28:34;;;;;;;4.73;4.33;;;;;;;;;;5075275;28;20441;-77
2022/11/06 13:31:03;;;;;;;5.20;4.80;;;;;;;;;;5072082;28;20492;-76
2022/11/06 13:33:33;;;;;;;5.50;5.10;;;;;;;;;;5070824;28;20479;-77
2022/11/06 13:36:00;;;;;;;4.73;4.43;;;;;;;;;;5068234;28;20458;-76
2022/11/06 13:38:30;;;;;;;6.87;5.80;;;;;;;;;;5071349;28;20741;-76
2022/11/06 13:40:59;;;;;;;4.83;4.43;;;;;;;;;;5070731;28;20995;-76
2022/11/06 13:43:28;;;;;;;5.67;5.20;;;;;;;;;;5071349;28;20543;-75
2022/11/06 13:45:58;;;;;;;5.10;4.70;;;;;;;;;;5072899;28;20468;-75
2022/11/06 13:48:35;;;;;;;5.60;5.10;;;;;;;;;;5072159;28;20439;-78
2022/11/06 13:51:05;;;;;;;5.13;4.73;;;;;;;;;;5072630;28;20445;-75
2022/11/06 13:53:38;;;;;;;5.20;4.80;;;;;;;;;;5071303;28;20942;-77
2022/11/06 13:56:15;;;;;;;5.87;5.37;;;;;;;;;;5071297;28;20587;-75
2022/11/06 13:59:00;;;;;;;5.20;4.80;;;;;;;;;;5070655;28;20440;-76
2022/11/06 14:01:33;;;;;;;4.40;4.10;;;;;;;;;;5072733;28;20797;-76
2022/11/06 14:04:09;;;;;;;5.27;4.87;;;;;;;;;;5074501;28;20465;-78
2022/11/06 14:06:37;;;;;;;5.33;5.00;;;;;;;;;;5074771;28;20449;-76
2022/11/06 14:09:09;;;;;;;5.10;4.70;;;;;;;;;;5078311;28;20820;-77
2022/11/06 14:11:37;;;;;;;4.60;4.30;;;;;;;;;;5074660;28;20457;-75
2022/11/06 14:14:05;;;;;;;4.50;4.20;;;;;;;;;;5056407;28;20461;-76
2022/11/06 14:16:33;;;;;;;5.53;5.03;;;;;;;;;;5054790;28;20461;-76
2022/11/06 14:19:06;;;;;;;4.87;4.37;;;;;;;;;;5054455;28;20446;-76
2022/11/06 14:21:52;;;;;;;5.23;4.83;;;;;;;;;;5055909;28;20441;-77
2022/11/06 14:24:36;;;;;;;4.83;4.50;;;;;;;;;;5058965;28;20508;-76
2022/11/06 14:27:07;;;;;;;4.43;4.13;;;;;;;;;;5057097;28;20448;-76
2022/11/06 14:29:56;;;;;;;5.53;4.40;;;;;;;;;;5056923;28;20446;-75
2022/11/06 14:32:39;;;;;;;5.07;4.67;;;;;;;;;;5054194;28;20493;-75
2022/11/06 14:35:27;;;;;;;4.60;4.30;;;;;;;;;;5057435;28;20541;-76
2022/11/06 14:38:11;;;;;;;4.43;4.13;;;;;;;;;;5056410;28;20488;-77
2022/11/06 14:40:46;;;;;;;4.80;4.50;;;;;;;;;;5057397;28;20566;-75
2022/11/06 14:43:24;;;;;;;4.80;4.40;;;;;;;;;;5053398;28;20472;-78
2022/11/06 14:45:58;;;;;;;4.60;4.20;;;;;;;;;;5058504;28;20486;-76
2022/11/06 14:48:43;;;;;;;5.10;4.70;;;;;;;;;;5059096;28;20445;-76
2022/11/06 14:51:23;;;;;;;5.20;4.80;;;;;;;;;;5059645;28;20453;-76
2022/11/06 14:53:54;;;;;;;4.93;4.53;;;;;;;;;;5056232;28;20580;-76
2022/11/06 14:56:24;;;;;;;5.00;4.60;;;;;;;;;;5057480;28;20495;-77